createdAt,value
2022-10-25T00:05:25.212Z,15.74
2022-10-25T00:15:28.101Z,15.50
2022-10-25T00:25:29.710Z,15.28
2022-10-25T00:35:31.158Z,15.18
2022-10-25T00:45:32.646Z,14.99
2022-10-25T00:55:35.500Z,14.84
2022-10-25T01:05:38.037Z,14.71
2022-10-25T01:16:09.001Z,14.57
2022-10-25T01:26:19.336Z,14.67
2022-10-25T01:37:01.850Z,14.61
2022-10-25T01:47:17.389Z,14.54
2022-10-25T01:57:21.950Z,14.54
2022-10-25T02:07:38.308Z,14.46
2022-10-25T02:17:48.644Z,14.42
2022-10-25T02:27:53.997Z,14.33
2022-10-25T02:37:55.543Z,14.18
2022-10-25T02:47:56.999Z,14.12
2022-10-25T02:57:58.695Z,14.09
2022-10-25T03:08:00.196Z,14.05
2022-10-25T03:18:01.636Z,13.98
2022-10-25T03:28:04.274Z,13.95
2022-10-25T03:38:05.752Z,14.08
2022-10-25T03:48:07.618Z,14.04
2022-10-25T03:58:09.081Z,14.14
2022-10-25T04:08:10.546Z,14.37
2022-10-25T04:18:12.017Z,14.73
2022-10-25T04:28:13.446Z,14.66
2022-10-25T04:38:14.923Z,14.45
2022-10-25T04:48:18.677Z,14.29
2022-10-25T04:58:21.144Z,14.01
2022-10-25T05:08:22.569Z,13.79
2022-10-25T05:18:24.313Z,13.66
2022-10-25T05:28:25.810Z,13.52
2022-10-25T05:38:33.006Z,13.48
2022-10-25T05:48:39.159Z,13.51
2022-10-25T05:58:41.667Z,13.50
2022-10-25T06:08:43.113Z,13.58
2022-10-25T06:18:45.309Z,13.67
2022-10-25T06:28:47.369Z,13.79
2022-10-25T06:38:49.534Z,14.00
2022-10-25T06:48:52.863Z,14.25
2022-10-25T06:58:55.297Z,14.27
2022-10-25T07:08:59.115Z,14.53
2022-10-25T07:19:02.647Z,14.81
2022-10-25T07:29:04.897Z,15.06
2022-10-25T07:39:06.553Z,15.36
2022-10-25T07:49:08.066Z,15.71
2022-10-25T07:59:09.546Z,16.05
2022-10-25T08:09:14.533Z,19.85
2022-10-25T08:19:16.615Z,30.04
2022-10-25T08:29:18.067Z,37.03
2022-10-25T08:39:19.537Z,39.61
2022-10-25T08:49:39.344Z,40.18
2022-10-25T08:59:44.479Z,40.67
2022-10-25T09:10:00.616Z,40.36
2022-10-25T09:20:27.548Z,41.35
2022-10-25T09:30:35.444Z,40.70
2022-10-25T09:40:53.935Z,40.26
2022-10-25T09:51:13.144Z,39.08
2022-10-25T10:01:21.424Z,37.66
2022-10-25T10:11:23.214Z,34.65
2022-10-25T10:21:25.935Z,35.08
2022-10-25T10:31:46.215Z,34.35
2022-10-25T10:42:19.264Z,34.10
2022-10-25T10:52:36.355Z,35.40
2022-10-25T11:02:41.114Z,34.15
2022-10-25T11:12:44.172Z,30.75
2022-10-25T11:23:10.644Z,25.94
2022-10-25T11:33:36.139Z,24.14
2022-10-25T11:43:58.953Z,23.80
2022-10-25T11:54:18.742Z,23.40
2022-10-25T12:04:39.515Z,24.08
2022-10-25T12:14:45.539Z,23.86
2022-10-25T12:24:52.812Z,24.47
2022-10-25T12:34:55.447Z,23.96
2022-10-25T12:45:24.167Z,23.41
2022-10-25T12:55:54.096Z,23.56
2022-10-25T13:06:23.907Z,24.09
2022-10-25T13:16:33.730Z,23.84
2022-10-25T13:27:13.688Z,23.44
2022-10-25T13:37:33.470Z,23.05
2022-10-25T13:47:48.561Z,23.02
2022-10-25T13:57:50.011Z,22.39
2022-10-25T14:07:51.628Z,22.53
2022-10-25T14:17:55.806Z,22.28
2022-10-25T14:28:09.763Z,22.15
2022-10-25T14:38:22.678Z,22.16
2022-10-25T14:48:24.264Z,21.88
2022-10-25T14:58:27.606Z,21.66
2022-10-25T15:08:30.427Z,21.41
2022-10-25T15:18:37.440Z,21.11
2022-10-25T15:28:50.341Z,20.79
2022-10-25T15:39:16.803Z,20.42
2022-10-25T15:49:19.008Z,20.06
2022-10-25T15:59:20.599Z,19.67
2022-10-25T16:09:22.114Z,19.17
2022-10-25T16:19:24.697Z,18.77
2022-10-25T16:29:26.221Z,18.41
2022-10-25T16:39:27.799Z,18.06
2022-10-25T16:49:29.351Z,17.78
2022-10-25T16:59:30.774Z,17.62
2022-10-25T17:09:32.254Z,17.44
2022-10-25T17:19:34.011Z,17.23
2022-10-25T17:29:35.504Z,17.17
2022-10-25T17:39:36.975Z,17.12
2022-10-25T17:49:39.363Z,16.98
2022-10-25T17:59:40.928Z,16.85
2022-10-25T18:09:42.351Z,16.60
2022-10-25T18:19:43.829Z,16.46
2022-10-25T18:29:45.330Z,16.35
2022-10-25T18:39:47.021Z,16.16
2022-10-25T18:49:48.805Z,15.99
2022-10-25T18:59:50.282Z,15.85
2022-10-25T19:09:51.792Z,15.66
2022-10-25T19:19:53.214Z,15.54
2022-10-25T19:29:54.720Z,15.41
2022-10-25T19:39:58.901Z,15.31
2022-10-25T19:50:01.359Z,15.14
2022-10-25T20:00:03.991Z,15.00
2022-10-25T20:10:08.183Z,14.77
2022-10-25T20:20:10.483Z,14.72
2022-10-25T20:30:12.011Z,14.66
2022-10-25T20:40:15.548Z,14.61
2022-10-25T20:50:17.440Z,14.56
2022-10-25T21:00:20.547Z,14.54
2022-10-25T21:10:22.225Z,14.57
2022-10-25T21:20:23.737Z,14.64
2022-10-25T21:30:25.356Z,14.71
2022-10-25T21:40:26.817Z,14.66
2022-10-25T21:50:28.248Z,14.67
2022-10-25T22:00:29.678Z,14.70
2022-10-25T22:10:31.458Z,14.75
2022-10-25T22:20:32.910Z,14.78
2022-10-25T22:30:34.374Z,14.73
2022-10-25T22:40:35.861Z,14.62
2022-10-25T22:50:37.306Z,14.55
2022-10-25T23:00:38.766Z,14.53
2022-10-25T23:10:40.305Z,14.51
2022-10-25T23:20:52.841Z,14.65
2022-10-25T23:30:54.352Z,14.77
2022-10-25T23:40:55.914Z,14.96
2022-10-25T23:51:07.263Z,15.31
